Time;durP1;ratioP1;P1;durP2;ratioP2;P2;SDS_P1;SDS_P2;PMS_P1;PMS_P2;Temp;Humidity;BMP_temperature;BMP_pressure;BME280_temperature;BME280_humidity;BME280_pressure;Samples;Min_cycle;Max_cycle;Signal;HPM_P1;HPM_P2
2022/08/04 00:02:14;;;;;;;;;;;;;;;17.92;100.00;99368.91;1712562;83;20482;-76
2022/08/04 00:04:46;;;;;;;;;;;;;;;17.95;100.00;99367.36;1717816;83;20109;-73
2022/08/04 00:07:30;;;;;;;;;;;;;;;18.00;100.00;99372.61;1719415;83;21133;-73
2022/08/04 00:10:00;;;;;;;;;;;;;;;18.03;100.00;99377.43;1718666;83;20089;-74
2022/08/04 00:12:35;;;;;;;;;;;;;;;18.04;100.00;99375.67;1719278;83;20089;-73
2022/08/04 00:15:03;;;;;;;;;;;;;;;18.06;100.00;99371.94;1719352;83;20573;-73
2022/08/04 00:17:41;;;;;;;;;;;;;;;18.07;100.00;99380.48;1719043;83;20097;-73
2022/08/04 00:20:13;;;;;;;;;;;;;;;18.08;100.00;99375.15;1690788;83;20085;-73
2022/08/04 00:22:44;;;;;;;;;;;;;;;18.10;100.00;99378.36;1719489;83;20085;-72
2022/08/04 00:25:11;;;;;;;;;;;;;;;18.12;100.00;99376.60;1719297;83;20413;-73
2022/08/04 00:27:41;;;;;;;;;;;;;;;18.11;100.00;99379.16;1664595;83;20122;-73
2022/08/04 00:30:11;;;;;;;;;;;;;;;18.11;100.00;99375.80;1718385;83;20073;-73
2022/08/04 00:32:45;;;;;;;;;;;;;;;18.13;100.00;99385.15;1690832;83;20089;-72
2022/08/04 00:35:17;;;;;;;;;;;;;;;18.13;100.00;99381.79;1719258;83;20120;-73
2022/08/04 00:37:46;;;;;;;;;;;;;;;18.14;100.00;99383.39;1712610;83;20110;-73
2022/08/04 00:40:34;;;;;;;;;;;;;;;18.16;100.00;99381.63;1711201;84;20147;-73
2022/08/04 00:43:22;;;;;;;;;;;;;;;18.18;100.00;99383.45;1706267;84;20101;-72
2022/08/04 00:46:13;;;;;;;;;;;;;;;18.19;100.00;99385.06;1711135;84;21133;-73
2022/08/04 00:48:49;;;;;;;;;;;;;;;18.22;100.00;99382.94;1711377;84;20097;-73
2022/08/04 00:51:30;;;;;;;;;;;;;;;18.24;100.00;99385.34;1682435;84;20121;-72
2022/08/04 00:54:24;;;;;;;;;;;;;;;18.24;100.00;99386.73;1711384;83;20102;-73
2022/08/04 00:56:58;;;;;;;;;;;;;;;18.24;100.00;99385.34;1711176;84;20428;-73
2022/08/04 00:59:30;;;;;;;;;;;;;;;18.25;100.00;99397.47;1711003;84;21126;-73
2022/08/04 01:02:19;;;;;;;;;;;;;;;18.27;100.00;99395.12;1682382;84;20428;-73
2022/08/04 01:05:04;;;;;;;;;;;;;;;18.28;100.00;99398.13;1711391;84;20125;-73
2022/08/04 01:07:46;;;;;;;;;;;;;;;18.29;100.00;99398.92;1710593;84;20448;-73
2022/08/04 01:10:24;;;;;;;;;;;;;;;18.31;100.00;99402.13;1711420;83;20118;-73
2022/08/04 01:13:22;;;;;;;;;;;;;;;18.30;100.00;99402.72;1704071;84;20153;-73
2022/08/04 01:16:20;;;;;;;;;;;;;;;18.32;100.00;99399.58;1707455;84;20085;-73
2022/08/04 01:19:00;;;;;;;;;;;;;;;18.32;100.00;99393.43;1708041;84;20097;-74
2022/08/04 01:21:50;;;;;;;;;;;;;;;18.33;100.00;99392.84;1682380;84;20085;-74
2022/08/04 01:24:46;;;;;;;;;;;;;;;18.34;100.00;99393.06;1666127;84;20458;-73
2022/08/04 01:27:39;;;;;;;;;;;;;;;18.35;100.00;99399.64;1703170;84;20562;-73
2022/08/04 01:30:13;;;;;;;;;;;;;;;18.36;100.00;99388.73;1671107;85;20457;-73
2022/08/04 01:32:46;;;;;;;;;;;;;;;18.37;100.00;99392.31;1682946;85;20171;-73
2022/08/04 01:35:24;;;;;;;;;;;;;;;18.36;100.00;99388.73;1698523;84;20097;-73
2022/08/04 01:38:03;;;;;;;;;;;;;;;18.36;100.00;99394.30;1699559;83;20103;-73
2022/08/04 01:40:32;;;;;;;;;;;;;;;18.36;100.00;99395.69;1679277;84;21165;-73
2022/08/04 01:43:01;;;;;;;;;;;;;;;18.37;100.00;99392.31;1686167;85;20494;-73
2022/08/04 01:45:30;;;;;;;;;;;;;;;18.38;100.00;99394.72;1685737;85;20103;-73
2022/08/04 01:47:58;;;;;;;;;;;;;;;18.40;100.00;99395.16;1686020;85;20466;-73
2022/08/04 01:50:27;;;;;;;;;;;;;;;18.42;100.00;99389.23;1686726;85;20115;-73
2022/08/04 01:52:56;;;;;;;;;;;;;;;18.42;100.00;99388.64;1686424;85;21088;-72
2022/08/04 01:55:29;;;;;;;;;;;;;;;18.45;100.00;99390.67;1657972;84;38436;-73
2022/08/04 01:58:00;;;;;;;;;;;;;;;18.45;100.00;99383.73;1686239;85;20119;-73
2022/08/04 02:00:27;;;;;;;;;;;;;;;18.44;100.00;99387.68;1685418;85;20612;-75
2022/08/04 02:02:58;;;;;;;;;;;;;;;18.45;100.00;99384.31;1658622;84;20167;-73
2022/08/04 02:05:26;;;;;;;;;;;;;;;18.51;100.00;99386.16;1685754;85;21167;-75
2022/08/04 02:08:34;;;;;;;;;;;;;;;18.57;100.00;99387.45;1657202;85;20166;-76
2022/08/04 02:11:13;;;;;;;;;;;;;;;18.59;100.00;99383.72;1681506;85;20154;-75
2022/08/04 02:13:54;;;;;;;;;;;;;;;18.63;100.00;99383.21;1685548;85;20348;-75
2022/08/04 02:16:32;;;;;;;;;;;;;;;18.61;100.00;99381.39;1686629;84;20453;-73
2022/08/04 02:19:21;;;;;;;;;;;;;;;18.62;100.00;99388.56;1685726;85;21558;-74
2022/08/04 02:21:54;;;;;;;;;;;;;;;18.59;100.00;99396.22;1685387;85;20151;-74
2022/08/04 02:24:23;;;;;;;;;;;;;;;18.56;100.00;99395.58;1686399;84;20151;-73
2022/08/04 02:26:51;;;;;;;;;;;;;;;18.53;100.00;99405.47;1686346;85;20115;-74
2022/08/04 02:29:26;;;;;;;;;;;;;;;18.49;100.00;99405.41;1682307;85;20114;-73
2022/08/04 02:32:08;;;;;;;;;;;;;;;18.47;100.00;99402.22;1654234;85;20119;-74
2022/08/04 02:34:51;;;;;;;;;;;;;;;18.46;100.00;99402.01;1685958;85;20119;-74
2022/08/04 02:37:20;;;;;;;;;;;;;;;18.45;100.00;99403.19;1686376;84;20119;-74
2022/08/04 02:39:47;;;;;;;;;;;;;;;18.45;100.00;99399.59;1655832;84;20170;-74
2022/08/04 02:42:17;;;;;;;;;;;;;;;18.45;100.00;99395.43;1655868;85;20162;-74
2022/08/04 02:44:52;;;;;;;;;;;;;;;18.44;100.00;99400.78;1676243;85;21526;-75
2022/08/04 02:47:25;;;;;;;;;;;;;;;18.44;100.00;99407.14;1648183;85;20128;-74
2022/08/04 02:50:00;;;;;;;;;;;;;;;18.43;100.00;99399.97;1677086;85;20107;-74
2022/08/04 02:52:25;;;;;;;;;;;;;;;18.43;100.00;99406.92;1676360;85;20152;-74
2022/08/04 02:54:58;;;;;;;;;;;;;;;18.41;100.00;99395.38;1676722;85;20117;-74
2022/08/04 02:57:28;;;;;;;;;;;;;;;18.41;100.00;99398.16;1676295;85;20695;-74
2022/08/04 03:00:10;;;;;;;;;;;;;;;18.41;100.00;99398.16;1655996;85;20115;-74
2022/08/04 03:02:51;;;;;;;;;;;;;;;18.43;100.00;99398.58;1655433;85;20115;-77
2022/08/04 03:05:28;;;;;;;;;;;;;;;18.43;100.00;99399.97;1676122;85;20145;-76
2022/08/04 03:08:27;;;;;;;;;;;;;;;18.49;100.00;99394.88;1676778;85;20222;-76
2022/08/04 03:11:11;;;;;;;;;;;;;;;18.56;100.00;99397.77;1639261;85;21995;-76
2022/08/04 03:13:58;;;;;;;;;;;;;;;18.55;100.00;99393.97;1645727;85;20115;-82
2022/08/04 03:16:30;;;;;;;;;;;;;;;18.57;100.00;99398.57;1655061;85;20459;-78
2022/08/04 03:19:31;;;;;;;;;;;;;;;18.63;100.00;99397.91;1676886;85;20518;-81
2022/08/04 03:22:24;;;;;;;;;;;;;;;18.67;100.00;99388.24;1676781;85;20474;-79
2022/08/04 03:25:20;;;;;;;;;;;;;;;18.69;100.00;99383.11;1634929;85;21121;-79
2022/08/04 03:28:03;;;;;;;;;;;;;;;18.69;100.00;99385.89;1676174;85;20117;-79
2022/08/04 03:30:56;;;;;;;;;;;;;;;18.66;100.00;99383.27;1673031;85;20131;-80
2022/08/04 03:33:28;;;;;;;;;;;;;;;18.63;100.00;99385.99;1676298;85;20800;-79
2022/08/04 03:36:13;;;;;;;;;;;;;;;18.62;100.00;99388.56;1676166;85;20148;-79
2022/08/04 03:39:08;;;;;;;;;;;;;;;18.62;100.00;99396.31;1676094;85;21228;-81
2022/08/04 03:41:39;;;;;;;;;;;;;;;18.62;100.00;99395.51;1676273;84;20115;-84
2022/08/04 03:44:34;;;;;;;;;;;;;;;18.60;100.00;99396.44;1651717;85;20140;-76
2022/08/04 03:47:42;;;;;;;;;;;;;;;18.60;100.00;99393.10;1676805;85;20120;-76
2022/08/04 03:50:34;;;;;;;;;;;;;;;18.61;100.00;99395.30;1672968;85;20111;-76
2022/08/04 03:53:15;;;;;;;;;;;;;;;18.60;100.00;99396.44;1672670;85;21138;-75
2022/08/04 03:56:05;;;;;;;;;;;;;;;18.61;100.00;99389.73;1676918;85;20144;-75
2022/08/04 03:58:53;;;;;;;;;;;;;;;18.63;100.00;99398.50;1654891;85;20131;-78
2022/08/04 04:01:21;;;;;;;;;;;;;;;18.66;100.00;99400.54;1676036;85;20187;-73
2022/08/04 04:04:17;;;;;;;;;;;;;;;18.68;100.00;99396.80;1672690;85;20152;-73
2022/08/04 04:07:19;;;;;;;;;;;;;;;18.71;100.00;99397.44;1677103;85;21731;-74
2022/08/04 04:10:08;;;;;;;;;;;;;;;18.72;100.00;99393.48;1704191;83;20112;-76
2022/08/04 04:13:03;;;;;;;;;;;;;;;18.72;100.00;99394.88;1673459;86;20100;-76
2022/08/04 04:15:37;;;;;;;;;;;;;;;18.74;100.00;99406.43;1673050;85;20809;-75
2022/08/04 04:18:21;;;;;;;;;;;;;;;18.78;100.00;99406.70;1672036;85;20128;-78
2022/08/04 04:21:04;;;;;;;;;;;;;;;18.82;100.00;99408.73;1672973;85;21869;-77
2022/08/04 04:23:55;;;;;;;;;;;;;;;18.83;100.00;99408.95;1672996;85;20432;-77
2022/08/04 04:26:42;;;;;;;;;;;;;;;18.83;100.00;99410.34;1673395;86;20100;-88
2022/08/04 04:29:14;;;;;;;;;;;;;;;18.76;100.00;99401.30;1672037;85;20666;-77
2022/08/04 04:32:06;;;;;;;;;;;;;;;18.73;100.00;99407.60;1671147;86;20199;-74
2022/08/04 04:34:40;;;;;;;;;;;;;;;18.75;100.00;99409.42;1693765;83;20143;-74
2022/08/04 04:37:17;;;;;;;;;;;;;;;18.76;100.00;99414.61;1701188;84;20425;-73
2022/08/04 04:39:49;;;;;;;;;;;;;;;18.77;100.00;99415.41;1701832;84;20102;-74
2022/08/04 04:42:23;;;;;;;;;;;;;;;18.75;100.00;99410.23;1696896;84;20724;-74
2022/08/04 04:45:08;;;;;;;;;;;;;;;18.75;100.00;99408.84;1696341;84;20118;-73
2022/08/04 04:47:48;;;;;;;;;;;;;;;18.76;100.00;99410.44;1696309;84;21183;-74
2022/08/04 04:50:21;;;;;;;;;;;;;;;18.75;100.00;99413.00;1695382;84;20094;-71
2022/08/04 04:53:06;;;;;;;;;;;;;;;18.74;100.00;99411.40;1683091;84;20102;-75
2022/08/04 04:55:37;;;;;;;;;;;;;;;18.74;100.00;99411.40;1696770;83;20437;-74
2022/08/04 04:58:03;;;;;;;;;;;;;;;18.76;100.00;99414.61;1695794;84;20159;-82
2022/08/04 05:00:48;;;;;;;;;;;;;;;18.77;100.00;99413.44;1696686;84;21125;-76
2022/08/04 05:03:35;;;;;;;;;;;;;;;18.79;100.00;99411.08;1696645;83;20106;-75
2022/08/04 05:06:17;;;;;;;;;;;;;;;18.82;100.00;99413.70;1676067;84;20122;-76
2022/08/04 05:09:04;;;;;;;;;;;;;;;18.89;100.00;99416.59;1640019;84;20504;-77
2022/08/04 05:11:45;;;;;;;;;;;;;;;18.91;100.00;99411.46;1696649;84;20090;-78
2022/08/04 05:14:21;;;;;;;;;;;;;;;18.97;100.00;99419.70;1696141;84;21762;-81
2022/08/04 05:16:55;;;;;;;;;;;;;;;19.03;100.00;99419.59;1696961;84;20074;-83
2022/08/04 05:19:52;;;;;;;;;;;;;;;19.05;100.00;99416.44;1696761;83;20114;-79
2022/08/04 05:22:31;;;;;;;;;;;;;;;19.05;100.00;99408.89;1696854;84;20182;-74
2022/08/04 05:25:01;;;;;;;;;;;;;;;19.06;100.00;99413.87;1696703;84;20098;-76
2022/08/04 05:27:32;;;;;;;;;;;;;;;19.06;100.00;99416.65;1696362;84;22908;-78
2022/08/04 05:30:11;;;;;;;;;;;;;;;19.05;100.00;99418.62;1675023;84;20139;-79
2022/08/04 05:32:48;;;;;;;;;;;;;;;19.06;100.00;99420.20;1696712;84;20086;-80
2022/08/04 05:35:28;;;;;;;;;;;;;;;19.08;100.00;99424.00;1696157;84;20614;-80
2022/08/04 05:37:54;;;;;;;;;;;;;;;19.10;100.00;99423.03;1696940;83;20127;-87
2022/08/04 05:40:25;;;;;;;;;;;;;;;19.10;100.00;99422.45;1696678;84;21147;-78
2022/08/04 05:42:50;;;;;;;;;;;;;;;19.12;100.00;99424.27;1700886;84;20110;-79
2022/08/04 05:45:18;;;;;;;;;;;;;;;19.18;100.00;99426.72;1701480;84;20182;-77
2022/08/04 05:47:51;;;;;;;;;;;;;;;19.20;100.00;99421.58;1697607;84;20118;-84
2022/08/04 05:50:21;;;;;;;;;;;;;;;19.24;100.00;99426.02;1701154;84;20154;-76
2022/08/04 05:52:51;;;;;;;;;;;;;;;19.28;100.00;99432.44;1679372;84;20126;-74
2022/08/04 05:55:22;;;;;;;;;;;;;;;19.32;100.00;99431.90;1700825;84;20100;-71
2022/08/04 05:57:50;;;;;;;;;;;;;;;19.36;100.00;99434.14;1701221;84;20458;-71
2022/08/04 06:00:22;;;;;;;;;;;;;;;19.37;100.00;99434.95;1701637;84;20113;-73
2022/08/04 06:02:49;;;;;;;;;;;;;;;19.38;100.00;99429.59;1701338;83;20146;-76
2022/08/04 06:05:26;;;;;;;;;;;;;;;19.39;100.00;99433.39;1681248;84;21167;-74
2022/08/04 06:07:54;;;;;;;;;;;;;;;19.40;100.00;99434.99;1701001;83;20402;-74
2022/08/04 06:10:28;;;;;;;;;;;;;;;19.36;100.00;99432.75;1676978;84;20150;-73
2022/08/04 06:13:06;;;;;;;;;;;;;;;19.38;100.00;99439.33;1700926;83;20086;-73
2022/08/04 06:15:36;;;;;;;;;;;;;;;19.42;100.00;99435.42;1680794;84;20138;-73
2022/08/04 06:18:09;;;;;;;;;;;;;;;19.48;100.00;99436.48;1680655;84;20125;-71
2022/08/04 06:20:37;;;;;;;;;;;;;;;19.51;100.00;99444.91;1700696;83;20098;-72
2022/08/04 06:23:15;;;;;;;;;;;;;;;19.54;100.00;99441.96;1679506;84;20130;-72
2022/08/04 06:25:45;;;;;;;;;;;;;;;19.57;100.00;99451.75;1700629;84;20150;-73
2022/08/04 06:28:14;;;;;;;;;;;;;;;19.56;100.00;99452.94;1701666;84;20093;-72
2022/08/04 06:30:49;;;;;;;;;;;;;;;19.56;100.00;99452.94;1681411;84;20122;-73
2022/08/04 06:33:26;;;;;;;;;;;;;;;19.55;100.00;99450.53;1701666;83;20150;-72
2022/08/04 06:36:05;;;;;;;;;;;;;;;19.56;100.00;99452.94;1699998;84;20121;-73
2022/08/04 06:38:35;;;;;;;;;;;;;;;19.59;100.00;99453.57;1701762;83;21008;-74
2022/08/04 06:41:08;;;;;;;;;;;;;;;19.62;100.00;99450.03;1679622;84;20102;-73
2022/08/04 06:43:41;;;;;;;;;;;;;;;19.68;100.00;99454.05;1682313;84;21216;-72
2022/08/04 06:46:10;;;;;;;;;;;;;;;19.78;100.00;99453.98;1695504;83;20461;-76
2022/08/04 06:48:41;;;;;;;;;;;;;;;19.91;100.00;99452.55;1728835;81;20120;-75
2022/08/04 06:51:11;;;;;;;;;;;;;;;20.06;100.00;99453.51;1715235;83;20369;-75
2022/08/04 06:53:45;;;;;;;;;;;;;;;20.16;100.00;99458.39;1730577;83;20096;-75
2022/08/04 06:56:11;;;;;;;;;;;;;;;20.23;100.00;99459.03;1715084;83;21772;-75
2022/08/04 06:58:53;;;;;;;;;;;;;;;20.29;100.00;99461.09;1715789;83;20119;-76
2022/08/04 07:01:22;;;;;;;;;;;;;;;20.35;100.00;99460.16;1715229;82;20151;-75
2022/08/04 07:03:47;;;;;;;;;;;;;;;20.35;100.00;99461.55;1715748;83;20147;-75
2022/08/04 07:06:20;;;;;;;;;;;;;;;20.34;100.00;99462.14;1716064;83;20115;-75
2022/08/04 07:08:48;;;;;;;;;;;;;;;20.30;100.00;99460.50;1728985;83;20088;-74
2022/08/04 07:11:24;;;;;;;;;;;;;;;20.24;100.00;99468.41;1715689;83;20111;-73
2022/08/04 07:13:53;;;;;;;;;;;;;;;20.21;100.00;99463.62;1714485;83;20096;-73
2022/08/04 07:16:22;;;;;;;;;;;;;;;20.18;100.00;99468.57;1716025;83;20111;-72
2022/08/04 07:18:55;;;;;;;;;;;;;;;20.17;100.00;99458.61;1729059;81;20116;-75
2022/08/04 07:21:22;;;;;;;;;;;;;;;20.16;100.00;99468.74;1705036;83;21646;-76
2022/08/04 07:23:50;;;;;;;;;;;;;;;20.15;100.00;99465.75;1715205;83;20130;-76
2022/08/04 07:26:19;;;;;;;;;;;;;;;20.16;100.00;99461.19;1716303;83;20123;-76
2022/08/04 07:28:50;;;;;;;;;;;;;;;20.21;100.00;99458.64;1715659;83;20667;-76
2022/08/04 07:31:22;;;;;;;;;;;;;;;20.27;100.00;99462.66;1715797;83;20095;-72
2022/08/04 07:33:56;;;;;;;;;;;;;;;20.35;100.00;99465.73;1729138;83;20425;-72
2022/08/04 07:36:20;;;;;;;;;;;;;;;20.40;100.00;99457.85;1715585;83;20423;-73
2022/08/04 07:38:51;;;;;;;;;;;;;;;20.50;100.00;99453.56;1704302;83;20084;-75
2022/08/04 07:41:23;;;;;;;;;;;;;;;20.67;100.00;99452.13;1716663;83;20146;-71
2022/08/04 07:43:50;;;;;;;;;;;;;;;20.83;100.00;99455.41;1721126;83;20120;-75
2022/08/04 07:46:16;;;;;;;;;;;;;;;20.97;100.00;99455.52;1720883;82;21113;-78
2022/08/04 07:48:45;;;;;;;;;;;;;;;21.11;100.00;99456.22;1721033;83;20139;-73
2022/08/04 07:51:11;;;;;;;;;;;;;;;21.22;100.00;99454.93;1721381;83;20083;-79
2022/08/04 07:53:38;;;;;;;;;;;;;;;21.30;100.00;99453.78;1721152;83;20087;-74
2022/08/04 07:56:05;;;;;;;;;;;;;;;21.36;100.00;99450.83;1721472;83;20108;-76
2022/08/04 07:58:31;;;;;;;;;;;;;;;21.41;100.00;99451.23;1721106;83;21101;-75
2022/08/04 08:01:00;;;;;;;;;;;;;;;21.48;100.00;99454.66;1721011;83;20119;-77
2022/08/04 08:03:27;;;;;;;;;;;;;;;21.54;100.00;99453.09;1720981;83;20095;-76
2022/08/04 08:05:53;;;;;;;;;;;;;;;21.65;100.00;99445.56;1721160;83;20467;-78
2022/08/04 08:08:20;;;;;;;;;;;;;;;21.77;100.00;99452.00;1721159;83;20087;-78
2022/08/04 08:10:47;;;;;;;;;;;;;;;21.94;100.00;99454.06;1721318;83;21140;-77
2022/08/04 08:13:14;;;;;;;;;;;;;;;22.11;100.00;99453.32;1721211;83;20111;-81
2022/08/04 08:15:44;;;;;;;;;;;;;;;22.21;100.00;99458.14;1721047;83;20411;-81
2022/08/04 08:18:11;;;;;;;;;;;;;;;22.30;100.00;99455.77;1720931;83;20423;-73
2022/08/04 08:20:37;;;;;;;;;;;;;;;22.40;100.00;99456.98;1721068;83;20459;-87
2022/08/04 08:23:03;;;;;;;;;;;;;;;22.50;100.00;99459.00;1721045;83;21129;-82
2022/08/04 08:25:31;;;;;;;;;;;;;;;22.56;100.00;99457.38;1721119;83;20099;-72
2022/08/04 08:27:59;;;;;;;;;;;;;;;22.66;100.00;99459.98;1721075;83;20120;-77
2022/08/04 08:30:25;;;;;;;;;;;;;;;22.69;100.00;99460.58;1721024;83;20115;-71
2022/08/04 08:32:52;;;;;;;;;;;;;;;22.66;100.00;99456.58;1721016;83;20646;-73
2022/08/04 08:35:18;;;;;;;;;;;;;;;22.70;100.00;99457.38;1721285;83;21086;-75
2022/08/04 08:37:55;;;;;;;;;;;;;;;22.72;100.00;99452.79;1720981;82;20111;-74
2022/08/04 08:40:49;;;;;;;;;;;;;;;22.85;100.00;99449.02;1721329;83;20083;-74
2022/08/04 08:43:22;;;;;;;;;;;;;;;23.23;100.00;99450.16;1712592;82;20128;-74
2022/08/04 08:46:13;;;;;;;;;;;;;;;23.75;100.00;99447.60;1711412;84;20139;-71
2022/08/04 08:49:01;;;;;;;;;;;;;;;24.27;100.00;99440.12;1711154;84;21683;-73
2022/08/04 08:51:57;;;;;;;;;;;;;;;24.68;94.02;99441.64;1711049;84;20103;-73
2022/08/04 08:54:33;;;;;;;;;;;;;;;24.70;90.66;99440.62;1711227;84;20111;-73
2022/08/04 08:57:27;;;;;;;;;;;;;;;24.51;90.86;99438.36;1711066;83;20780;-73
2022/08/04 09:00:04;;;;;;;;;;;;;;;24.35;90.44;99431.25;1708733;84;20090;-75
2022/08/04 09:02:46;;;;;;;;;;;;;;;24.50;92.46;99431.16;1710560;83;22295;-72
2022/08/04 09:05:40;;;;;;;;;;;;;;;24.91;92.09;99433.39;1711022;84;20099;-73
2022/08/04 09:08:26;;;;;;;;;;;;;;;25.39;90.97;99431.14;1688384;83;20127;-74
2022/08/04 09:10:55;;;;;;;;;;;;;;;26.04;89.14;99426.91;1711119;84;20088;-71
2022/08/04 09:13:42;;;;;;;;;;;;;;;26.53;84.05;99426.20;1711356;84;20084;-75
2022/08/04 09:16:32;;;;;;;;;;;;;;;26.86;79.81;99427.84;1711148;84;21252;-74
2022/08/04 09:19:08;;;;;;;;;;;;;;;26.85;76.81;99429.87;1711194;83;20431;-74
2022/08/04 09:21:50;;;;;;;;;;;;;;;27.00;76.55;99429.05;1711001;82;20075;-73
2022/08/04 09:24:22;;;;;;;;;;;;;;;27.24;75.77;99426.97;1711247;84;20152;-73
2022/08/04 09:26:58;;;;;;;;;;;;;;;27.65;74.26;99432.23;1711068;82;20083;-79
2022/08/04 09:29:51;;;;;;;;;;;;;;;27.79;71.38;99438.17;1711409;82;21125;-77
2022/08/04 09:32:42;;;;;;;;;;;;;;;27.95;70.03;99433.38;1711083;84;20407;-75
2022/08/04 09:35:38;;;;;;;;;;;;;;;28.30;67.72;99428.20;1711095;84;20414;-82
2022/08/04 09:38:15;;;;;;;;;;;;;;;28.66;67.41;99431.56;1711087;84;20519;-75
2022/08/04 09:40:48;;;;;;;;;;;;;;;28.82;64.98;99436.63;1711051;84;20147;-79
2022/08/04 09:43:33;;;;;;;;;;;;;;;28.60;64.64;99431.30;1709905;82;21148;-77
2022/08/04 09:46:09;;;;;;;;;;;;;;;28.37;62.68;99421.57;1711191;83;20148;-80
2022/08/04 09:48:48;;;;;;;;;;;;;;;28.06;65.05;99429.53;1711074;83;20127;-78
2022/08/04 09:51:37;;;;;;;;;;;;;;;27.90;65.32;99430.28;1711310;83;20096;-73
2022/08/04 09:54:13;;;;;;;;;;;;;;;27.94;66.63;99438.05;1711130;84;20120;-72
2022/08/04 09:56:58;;;;;;;;;;;;;;;27.99;64.95;99433.30;1711059;84;21154;-72
2022/08/04 09:59:44;;;;;;;;;;;;;;;27.96;65.53;99429.95;1711066;84;20156;-72
2022/08/04 10:02:12;;;;;;;;;;;;;;;27.83;65.42;99439.69;1711191;84;20432;-71
2022/08/04 10:04:39;;;;;;;;;;;;;;;27.76;66.93;99433.39;1711076;84;20705;-72
2022/08/04 10:07:26;;;;;;;;;;;;;;;27.98;63.87;99423.25;1711039;84;20144;-71
2022/08/04 10:10:10;;;;;;;;;;;;;;;28.21;64.42;99427.39;1711083;84;21212;-73
2022/08/04 10:12:53;;;;;;;;;;;;;;;28.31;63.33;99426.95;1711078;84;20113;-75
2022/08/04 10:15:33;;;;;;;;;;;;;;;28.18;63.64;99427.45;1711076;84;20430;-76
2022/08/04 10:18:09;;;;;;;;;;;;;;;27.87;63.34;99435.38;1711021;84;20121;-72
2022/08/04 10:20:43;;;;;;;;;;;;;;;27.63;64.94;99427.64;1711270;84;20526;-73
2022/08/04 10:23:19;;;;;;;;;;;;;;;27.70;66.66;99430.32;1711081;84;21811;-71
2022/08/04 10:26:07;;;;;;;;;;;;;;;28.01;65.82;99425.20;1710961;84;20072;-75
2022/08/04 10:28:39;;;;;;;;;;;;;;;28.48;65.47;99422.91;1722146;83;20071;-73
2022/08/04 10:31:08;;;;;;;;;;;;;;;28.89;64.82;99420.09;1697657;84;20100;-72
2022/08/04 10:33:42;;;;;;;;;;;;;;;28.93;63.54;99420.17;1711219;84;20467;-72
2022/08/04 10:36:09;;;;;;;;;;;;;;;28.89;63.75;99416.64;1709898;83;21265;-72
2022/08/04 10:38:41;;;;;;;;;;;;;;;28.80;63.08;99421.33;1711107;84;20171;-77
2022/08/04 10:41:19;;;;;;;;;;;;;;;28.51;61.63;99421.23;1711242;84;20112;-75
2022/08/04 10:44:03;;;;;;;;;;;;;;;28.36;64.40;99414.34;1718206;83;20107;-71
2022/08/04 10:46:36;;;;;;;;;;;;;;;28.68;60.86;99410.73;1724409;82;20119;-75
2022/08/04 10:49:13;;;;;;;;;;;;;;;28.78;60.23;99420.36;1720951;83;22016;-76
2022/08/04 10:51:46;;;;;;;;;;;;;;;28.86;61.22;99414.73;1718318;83;20130;-75
2022/08/04 10:54:16;;;;;;;;;;;;;;;29.06;60.93;99417.42;1719404;83;20146;-78
2022/08/04 10:56:52;;;;;;;;;;;;;;;29.35;59.98;99411.79;1719577;83;20187;-76
2022/08/04 10:59:22;;;;;;;;;;;;;;;29.58;58.32;99414.36;1719786;83;20168;-80
2022/08/04 11:01:49;;;;;;;;;;;;;;;29.69;58.00;99404.77;1719596;83;21230;-78
2022/08/04 11:04:37;;;;;;;;;;;;;;;29.70;58.29;99409.19;1719416;83;20091;-76
2022/08/04 11:07:09;;;;;;;;;;;;;;;29.53;56.59;99409.25;1719397;83;20469;-74
2022/08/04 11:09:42;;;;;;;;;;;;;;;28.95;57.57;99411.25;1719685;82;20202;-81
2022/08/04 11:12:20;;;;;;;;;;;;;;;28.55;59.95;99409.23;1722986;83;20199;-82
2022/08/04 11:15:08;;;;;;;;;;;;;;;28.28;60.40;99410.12;1712765;83;21252;-75
2022/08/04 11:17:55;;;;;;;;;;;;;;;28.29;62.18;99399.80;1719537;83;20171;-80
2022/08/04 11:20:39;;;;;;;;;;;;;;;28.48;61.99;99394.67;1719556;82;20150;-81
2022/08/04 11:23:11;;;;;;;;;;;;;;;28.82;60.35;99388.61;1719844;83;21883;-77
2022/08/04 11:26:07;;;;;;;;;;;;;;;29.06;59.10;99380.68;1723114;83;20430;-82
2022/08/04 11:28:40;;;;;;;;;;;;;;;29.37;59.74;99379.62;1720177;83;22161;-81
2022/08/04 11:31:15;;;;;;;;;;;;;;;29.89;58.54;99386.38;1723293;82;20182;-82
2022/08/04 11:33:55;;;;;;;;;;;;;;;30.37;55.73;99375.18;1719858;83;20155;-79
2022/08/04 11:37:00;;;;;;;;;;;;;;;30.72;54.47;99375.42;1719254;83;20131;-77
2022/08/04 11:39:29;;;;;;;;;;;;;;;30.72;53.33;99378.25;1720201;82;20469;-76
2022/08/04 11:42:01;;;;;;;;;;;;;;;30.59;53.78;99372.47;1720296;83;21914;-85
2022/08/04 11:44:38;;;;;;;;;;;;;;;30.63;54.30;99373.11;1700050;83;20147;-76
2022/08/04 11:47:25;;;;;;;;;;;;;;;30.86;52.72;99372.72;1710275;82;20178;-79
2022/08/04 11:50:07;;;;;;;;;;;;;;;30.88;53.14;99367.39;1710204;84;20144;-74
2022/08/04 11:52:34;;;;;;;;;;;;;;;30.54;52.20;99369.55;1710439;84;20155;-74
2022/08/04 11:55:06;;;;;;;;;;;;;;;30.11;52.83;99370.14;1710231;84;21269;-77
2022/08/04 11:57:33;;;;;;;;;;;;;;;29.77;54.18;99378.66;1709975;84;20091;-76
2022/08/04 12:00:00;;;;;;;;;;;;;;;29.73;56.17;99370.89;1710264;84;20211;-76
2022/08/04 12:02:43;;;;;;;;;;;;;;;30.05;55.35;99362.05;1722224;83;20586;-78
2022/08/04 12:05:10;;;;;;;;;;;;;;;30.33;54.05;99357.52;1710133;84;20163;-81
2022/08/04 12:07:41;;;;;;;;;;;;;;;30.29;53.35;99348.34;1710479;84;21702;-84
2022/08/04 12:10:32;;;;;;;;;;;;;;;30.09;53.71;99349.99;1710279;82;20124;-76
2022/08/04 12:13:18;;;;;;;;;;;;;;;29.77;54.92;99350.36;1709461;83;20155;-81
2022/08/04 12:15:51;;;;;;;;;;;;;;;29.70;55.08;99346.34;1710227;84;20670;-78
2022/08/04 12:18:24;;;;;;;;;;;;;;;29.52;54.25;99347.48;1710272;84;20123;-79
2022/08/04 12:20:59;;;;;;;;;;;;;;;29.29;55.37;99340.07;1710718;84;21229;-73
2022/08/04 12:23:41;;;;;;;;;;;;;;;29.00;55.66;99349.96;1710902;83;20100;-73
2022/08/04 12:26:09;;;;;;;;;;;;;;;28.70;57.61;99348.34;1711076;84;20475;-74
2022/08/04 12:28:38;;;;;;;;;;;;;;;28.41;58.85;99346.06;1711136;84;20168;-74
2022/08/04 12:31:14;;;;;;;;;;;;;;;28.26;59.24;99356.94;1707833;83;20118;-72
2022/08/04 12:33:59;;;;;;;;;;;;;;;28.27;59.32;99352.87;1699459;83;21143;-74
2022/08/04 12:36:33;;;;;;;;;;;;;;;28.33;59.09;99348.27;1710745;84;20435;-74
2022/08/04 12:39:11;;;;;;;;;;;;;;;28.30;59.58;99352.61;1711269;83;20083;-74
2022/08/04 12:41:41;;;;;;;;;;;;;;;28.03;60.22;99358.46;1711112;83;20084;-74
2022/08/04 12:44:12;;;;;;;;;;;;;;;27.61;62.55;99363.23;1721287;82;20185;-78
2022/08/04 12:46:39;;;;;;;;;;;;;;;27.14;62.78;99359.75;1680849;85;21164;-77
2022/08/04 12:49:06;;;;;;;;;;;;;;;26.67;65.22;99356.78;1680963;85;20124;-77
2022/08/04 12:51:39;;;;;;;;;;;;;;;26.36;68.24;99356.92;1661636;85;20099;-78
2022/08/04 12:54:06;;;;;;;;;;;;;;;26.07;70.94;99359.95;1680850;85;20096;-79
2022/08/04 12:56:33;;;;;;;;;;;;;;;25.78;72.36;99351.16;1681066;85;20076;-86
2022/08/04 12:59:02;;;;;;;;;;;;;;;25.51;74.31;99347.67;1661570;85;21228;-80
2022/08/04 13:01:29;;;;;;;;;;;;;;;25.33;76.50;99346.52;1680374;84;20132;-85
2022/08/04 13:04:00;;;;;;;;;;;;;;;25.38;78.69;99335.42;1660338;85;20120;-84
2022/08/04 13:06:34;;;;;;;;;;;;;;;25.69;81.08;99328.40;1681090;84;20589;-75
2022/08/04 13:09:09;;;;;;;;;;;;;;;26.34;81.70;99321.98;1680786;85;20088;-75
2022/08/04 13:11:56;;;;;;;;;;;;;;;27.11;77.84;99318.97;1681091;85;21064;-77
2022/08/04 13:14:23;;;;;;;;;;;;;;;27.88;74.21;99320.70;1680762;84;20426;-76
2022/08/04 13:16:59;;;;;;;;;;;;;;;28.71;66.90;99324.51;1680888;85;20100;-77
2022/08/04 13:19:27;;;;;;;;;;;;;;;29.29;65.88;99324.52;1680694;84;20095;-84
2022/08/04 13:21:56;;;;;;;;;;;;;;;29.97;62.63;99325.31;1661231;85;20446;-84
2022/08/04 13:24:22;;;;;;;;;;;;;;;30.40;60.27;99317.02;1680673;84;21153;-80
2022/08/04 13:27:01;;;;;;;;;;;;;;;30.58;59.52;99319.27;1680691;85;20423;-75
2022/08/04 13:29:36;;;;;;;;;;;;;;;30.84;60.38;99314.30;1681168;85;20450;-74